Time;durP1;ratioP1;P1;durP2;ratioP2;P2;SDS_P1;SDS_P2;PMS_P1;PMS_P2;Temp;Humidity;BMP_temperature;BMP_pressure;BME280_temperature;BME280_humidity;BME280_pressure;Samples;Min_cycle;Max_cycle;Signal;HPM_P1;HPM_P2
2022/01/24 00:00:13;;;;;;;6.70;5.20;;;4.60;99.90;;;;;;4974813;28;20263;-78
2022/01/24 00:02:42;;;;;;;8.25;6.30;;;4.60;99.90;;;;;;4974328;28;20318;-79
2022/01/24 00:05:08;;;;;;;6.40;4.93;;;4.50;99.90;;;;;;4974561;28;20220;-77
2022/01/24 00:07:34;;;;;;;9.20;5.50;;;4.50;99.90;;;;;;4973594;28;20235;-79
2022/01/24 00:10:04;;;;;;;11.50;6.47;;;4.50;99.90;;;;;;4974611;28;20671;-80
2022/01/24 00:17:46;;;;;;;8.80;5.90;;;4.40;99.90;;;;;;4974685;28;20650;-77
2022/01/24 00:28:26;;;;;;;7.88;6.60;;;4.10;99.90;;;;;;4974828;28;20220;-78
2022/01/24 00:30:53;;;;;;;6.20;5.20;;;4.00;99.90;;;;;;4973043;28;20191;-79
2022/01/24 00:33:19;;;;;;;8.52;5.25;;;4.00;99.90;;;;;;4974242;28;20194;-79
2022/01/24 00:35:46;;;;;;;8.10;5.68;;;4.00;99.90;;;;;;4974380;28;20191;-78
2022/01/24 00:38:11;;;;;;;6.90;5.22;;;4.00;99.90;;;;;;4974339;28;20184;-79
2022/01/24 00:40:40;;;;;;;7.43;5.57;;;3.90;99.90;;;;;;4974266;28;20181;-78
2022/01/24 00:43:20;;;;;;;7.45;5.03;;;3.90;99.90;;;;;;4974113;28;20255;-78
2022/01/24 00:45:58;;;;;;;8.73;5.95;;;3.80;99.90;;;;;;4974342;28;20326;-77
2022/01/24 00:54:42;;;;;;;6.18;4.60;;;3.70;99.90;;;;;;4974674;28;20188;-78
2022/01/24 00:56:46;;;;;;;6.97;4.97;;;3.60;99.90;;;;;;4977566;28;20188;-79
2022/01/24 00:59:12;;;;;;;5.43;4.80;;;3.50;99.90;;;;;;4976820;28;20181;-79
2022/01/24 01:01:37;;;;;;;7.40;4.80;;;3.40;99.90;;;;;;4960263;28;20217;-78
2022/01/24 01:04:03;;;;;;;6.07;4.97;;;3.40;99.90;;;;;;4978102;28;20179;-79
2022/01/24 01:06:29;;;;;;;4.30;3.90;;;3.40;99.90;;;;;;4977939;28;20181;-79
2022/01/24 01:19:50;;;;;;;5.90;4.00;;;3.20;99.90;;;;;;4977879;28;20212;-80
2022/01/24 01:22:16;;;;;;;6.10;4.77;;;3.10;99.90;;;;;;4977293;28;20688;-79
2022/01/24 01:24:49;;;;;;;5.80;4.50;;;3.00;99.90;;;;;;4977659;28;20607;-81
2022/01/24 01:27:23;;;;;;;7.20;4.00;;;3.00;99.90;;;;;;4961247;28;20275;-79
2022/01/24 01:32:38;;;;;;;9.48;4.45;;;2.90;99.90;;;;;;4977192;28;20235;-80
2022/01/24 01:35:20;;;;;;;5.82;4.80;;;2.90;99.90;;;;;;4977584;28;20279;-79
2022/01/24 01:38:05;;;;;;;6.15;3.78;;;2.80;99.90;;;;;;4977298;28;20165;-78
2022/01/24 01:54:24;;;;;;;5.70;4.63;;;2.60;99.90;;;;;;4977113;28;20187;-81
2022/01/24 01:56:50;;;;;;;5.43;4.63;;;2.60;99.90;;;;;;4977056;28;20172;-80
2022/01/24 01:59:15;;;;;;;6.40;4.60;;;2.70;99.90;;;;;;4976872;28;20179;-79
2022/01/24 02:01:41;;;;;;;6.93;4.80;;;2.60;99.90;;;;;;4976595;28;20240;-78
2022/01/24 02:04:07;;;;;;;7.80;4.60;;;2.60;99.90;;;;;;4976858;28;20218;-78
2022/01/24 02:06:33;;;;;;;8.00;5.00;;;2.60;99.90;;;;;;4976345;28;20598;-80
2022/01/24 02:09:01;;;;;;;5.22;4.25;;;2.60;99.90;;;;;;4976771;28;20218;-79
2022/01/24 02:11:26;;;;;;;6.93;5.05;;;2.50;99.90;;;;;;4975360;28;20193;-80
2022/01/24 02:13:52;;;;;;;5.47;4.30;;;2.60;99.90;;;;;;4976866;28;20303;-79
2022/01/24 02:16:47;;;;;;;4.80;4.00;;;2.50;99.90;;;;;;4975521;28;20427;-79
2022/01/24 02:24:22;;;;;;;7.97;4.85;;;2.40;99.90;;;;;;4976704;28;20341;-79
2022/01/24 02:26:54;;;;;;;7.67;4.83;;;2.40;99.90;;;;;;4976439;28;20220;-79
2022/01/24 02:29:32;;;;;;;8.23;4.07;;;2.40;99.90;;;;;;4976656;28;20215;-80
2022/01/24 02:31:58;;;;;;;6.40;4.05;;;2.40;99.90;;;;;;4976113;28;20193;-80
2022/01/24 02:34:26;;;;;;;9.50;4.53;;;2.40;99.90;;;;;;4976176;28;20579;-80
2022/01/24 02:36:54;;;;;;;8.30;5.13;;;2.40;99.90;;;;;;4976460;28;20233;-79
2022/01/24 02:51:08;;;;;;;8.90;4.90;;;2.30;99.90;;;;;;4976086;28;20277;-79
2022/01/24 02:53:13;;;;;;;4.70;4.30;;;2.30;99.90;;;;;;4974729;28;20244;-81
2022/01/24 02:55:40;;;;;;;4.53;4.13;;;2.20;99.90;;;;;;4976131;28;20275;-80
2022/01/24 02:58:05;;;;;;;7.30;4.80;;;2.20;99.90;;;;;;4974734;28;20200;-78
2022/01/24 03:00:32;;;;;;;7.00;4.87;;;2.20;99.90;;;;;;4975686;28;20256;-78
2022/01/24 03:02:57;;;;;;;6.15;4.80;;;2.10;99.90;;;;;;4974095;28;20443;-82
2022/01/24 03:05:23;;;;;;;6.53;4.27;;;2.20;99.90;;;;;;4975749;28;20208;-80
2022/01/24 03:07:48;;;;;;;6.57;5.33;;;2.10;99.90;;;;;;4975910;28;20205;-78
2022/01/24 03:10:24;;;;;;;8.20;5.73;;;2.10;99.90;;;;;;4975331;28;20211;-79
2022/01/24 03:13:08;;;;;;;4.63;3.70;;;2.10;99.90;;;;;;4974229;28;20564;-80
2022/01/24 03:15:34;;;;;;;7.05;4.55;;;2.10;99.90;;;;;;4975641;28;20167;-80
2022/01/24 03:18:00;;;;;;;10.87;5.40;;;2.00;99.90;;;;;;4973685;28;20213;-79
2022/01/24 03:20:25;;;;;;;6.23;5.00;;;2.00;99.90;;;;;;4975509;28;20189;-79
2022/01/24 03:22:51;;;;;;;6.57;4.53;;;2.00;99.90;;;;;;4974941;28;20243;-79
2022/01/24 03:25:16;;;;;;;10.37;5.43;;;1.90;99.90;;;;;;4975620;28;20190;-80
2022/01/24 03:27:42;;;;;;;5.70;4.30;;;2.00;99.90;;;;;;4975324;28;20226;-79
2022/01/24 03:30:08;;;;;;;6.23;5.63;;;2.00;99.90;;;;;;4974225;28;20215;-80
2022/01/24 03:32:33;;;;;;;7.93;4.13;;;1.90;99.90;;;;;;4974765;28;20197;-79
2022/01/24 03:34:59;;;;;;;6.73;4.70;;;1.90;99.90;;;;;;4975143;28;20213;-81
2022/01/24 03:37:24;;;;;;;8.90;5.80;;;1.90;99.90;;;;;;4975490;28;20189;-79
2022/01/24 03:39:50;;;;;;;6.27;5.30;;;1.90;99.90;;;;;;4975318;28;20215;-79
2022/01/24 03:42:16;;;;;;;8.53;5.27;;;1.90;99.90;;;;;;4974993;28;20662;-79
2022/01/24 03:44:44;;;;;;;6.93;5.00;;;1.90;99.90;;;;;;4975054;28;20593;-78
2022/01/24 03:47:40;;;;;;;6.00;4.63;;;1.90;99.90;;;;;;4973793;28;20186;-80
2022/01/24 03:50:19;;;;;;;6.53;5.30;;;1.90;99.90;;;;;;4974848;28;20218;-79
2022/01/24 03:52:45;;;;;;;5.30;4.80;;;1.90;99.90;;;;;;4974551;28;20207;-78
2022/01/24 03:55:12;;;;;;;6.07;5.40;;;1.90;99.90;;;;;;4974974;28;20184;-79
2022/01/24 03:57:39;;;;;;;7.60;6.05;;;1.90;99.90;;;;;;4974821;28;20556;-79
2022/01/24 04:00:07;;;;;;;10.25;6.22;;;1.90;99.90;;;;;;4974892;28;20271;-78
2022/01/24 04:02:33;;;;;;;7.00;4.93;;;1.90;99.90;;;;;;4974364;28;20202;-80
2022/01/24 04:04:59;;;;;;;6.80;5.10;;;2.00;99.90;;;;;;4974656;28;21020;-78
2022/01/24 04:07:25;;;;;;;6.47;5.80;;;2.00;99.90;;;;;;4974619;28;20279;-78
2022/01/24 04:09:51;;;;;;;7.90;5.77;;;2.10;99.90;;;;;;4974570;28;20634;-79
2022/01/24 04:12:16;;;;;;;7.35;5.53;;;2.10;99.90;;;;;;4974260;28;20197;-80
2022/01/24 04:17:38;;;;;;;8.40;6.20;;;2.20;99.90;;;;;;4963875;28;20623;-79
2022/01/24 04:22:51;;;;;;;10.45;5.93;;;2.30;99.90;;;;;;4973949;28;20239;-79
2022/01/24 04:25:22;;;;;;;9.07;5.50;;;2.40;99.90;;;;;;4974521;28;20176;-80
2022/01/24 04:27:48;;;;;;;7.60;6.18;;;2.40;99.90;;;;;;4974877;28;20194;-78
2022/01/24 04:30:14;;;;;;;7.38;6.38;;;2.50;99.90;;;;;;4974262;28;20754;-80
2022/01/24 04:32:40;;;;;;;7.47;5.53;;;2.60;99.90;;;;;;4974001;28;20300;-79
2022/01/24 04:35:06;;;;;;;7.23;6.40;;;2.70;99.90;;;;;;4974406;28;20175;-81
2022/01/24 04:37:31;;;;;;;7.28;6.25;;;2.80;99.90;;;;;;4973158;28;20188;-79
2022/01/24 04:39:57;;;;;;;10.93;6.80;;;2.80;99.90;;;;;;4974513;28;20228;-78
2022/01/24 04:42:32;;;;;;;7.77;6.33;;;2.90;99.90;;;;;;4974097;28;20573;-80
2022/01/24 04:45:24;;;;;;;8.90;6.97;;;2.80;99.90;;;;;;4974500;28;20187;-78
2022/01/24 04:50:28;;;;;;;8.88;6.97;;;2.90;99.90;;;;;;4974124;28;20189;-79
2022/01/24 04:53:09;;;;;;;8.55;7.05;;;2.80;99.90;;;;;;4974225;28;20204;-79
2022/01/24 04:55:35;;;;;;;8.38;6.80;;;2.90;99.90;;;;;;4974217;28;20545;-80
2022/01/24 04:58:00;;;;;;;6.83;6.23;;;2.90;99.90;;;;;;4974176;28;20192;-80
2022/01/24 05:00:26;;;;;;;7.40;6.47;;;2.90;99.90;;;;;;4974272;28;20185;-78
2022/01/24 05:02:51;;;;;;;8.13;7.07;;;3.00;99.90;;;;;;4973768;28;20215;-78
2022/01/24 05:05:20;;;;;;;7.67;6.90;;;3.00;99.90;;;;;;4974001;28;20191;-79
2022/01/24 05:07:47;;;;;;;7.63;6.78;;;3.00;99.90;;;;;;4974044;28;20534;-79
2022/01/24 05:10:38;;;;;;;6.65;6.05;;;3.10;99.90;;;;;;4974260;28;20607;-78
2022/01/24 05:23:57;;;;;;;10.32;8.40;;;2.80;99.90;;;;;;4974407;28;20244;-80
2022/01/24 05:26:23;;;;;;;10.67;7.70;;;2.80;99.90;;;;;;4974296;28;20521;-79
2022/01/24 05:28:48;;;;;;;9.07;7.93;;;2.70;99.90;;;;;;4974010;28;20203;-78
2022/01/24 05:31:14;;;;;;;10.43;7.90;;;2.70;99.90;;;;;;4973756;28;20180;-80
2022/01/24 05:33:39;;;;;;;11.20;8.40;;;2.60;99.90;;;;;;4973810;28;20266;-79
2022/01/24 05:36:05;;;;;;;11.60;7.83;;;2.60;99.90;;;;;;4973999;28;20174;-79
2022/01/24 05:38:31;;;;;;;9.30;7.60;;;2.50;99.90;;;;;;4973895;28;20192;-80
2022/01/24 05:40:57;;;;;;;11.30;9.00;;;2.40;99.90;;;;;;4974239;28;20719;-80
2022/01/24 05:43:23;;;;;;;10.70;8.43;;;2.30;99.90;;;;;;4977619;28;20206;-80
2022/01/24 05:45:49;;;;;;;10.90;9.00;;;2.30;99.90;;;;;;4977385;28;20604;-80
2022/01/24 05:48:15;;;;;;;15.40;8.43;;;2.20;99.90;;;;;;4977219;28;20414;-79
2022/01/24 05:50:40;;;;;;;11.70;8.60;;;2.20;99.90;;;;;;4977189;28;20702;-79
2022/01/24 05:53:06;;;;;;;13.47;9.30;;;2.10;99.90;;;;;;4976986;28;20932;-80
2022/01/24 05:55:32;;;;;;;15.13;9.97;;;2.00;99.90;;;;;;4977256;28;20203;-80
2022/01/24 05:57:58;;;;;;;11.73;8.83;;;1.90;99.90;;;;;;4976991;28;20179;-79
2022/01/24 06:00:23;;;;;;;12.27;9.37;;;1.90;99.90;;;;;;4976965;28;20219;-79
2022/01/24 06:02:49;;;;;;;11.20;7.83;;;1.80;99.90;;;;;;4976717;28;20745;-81
2022/01/24 06:05:15;;;;;;;10.23;8.30;;;1.70;99.90;;;;;;4975937;28;20688;-81
2022/01/24 06:07:40;;;;;;;14.50;9.47;;;1.60;99.90;;;;;;4976650;28;20279;-78
2022/01/24 06:10:07;;;;;;;11.13;8.60;;;1.50;99.90;;;;;;4976670;28;20636;-80
2022/01/24 06:12:33;;;;;;;17.73;11.55;;;1.50;99.90;;;;;;4976566;28;20664;-79
2022/01/24 06:14:59;;;;;;;14.98;9.63;;;1.50;99.90;;;;;;4976758;28;20594;-79
2022/01/24 06:17:25;;;;;;;13.48;10.55;;;1.40;99.90;;;;;;4976726;28;20177;-79
2022/01/24 06:19:51;;;;;;;13.37;9.57;;;1.30;99.90;;;;;;4976713;28;20270;-79
2022/01/24 06:22:17;;;;;;;14.17;9.73;;;1.20;99.90;;;;;;4976208;28;20198;-78
2022/01/24 06:24:42;;;;;;;15.57;10.67;;;1.20;99.90;;;;;;4976541;28;20470;-80
2022/01/24 06:27:08;;;;;;;12.40;9.60;;;1.10;99.90;;;;;;4975379;28;20243;-80
2022/01/24 06:29:34;;;;;;;15.10;11.00;;;1.10;99.90;;;;;;4976721;28;20214;-79
2022/01/24 06:31:59;;;;;;;11.33;9.33;;;1.00;99.90;;;;;;4976075;28;21014;-79
2022/01/24 06:34:25;;;;;;;12.43;9.80;;;1.00;99.90;;;;;;4976433;28;20181;-79
2022/01/24 06:36:51;;;;;;;10.50;8.60;;;0.90;99.90;;;;;;4976704;28;20190;-78
2022/01/24 06:39:17;;;;;;;16.57;10.77;;;0.90;99.90;;;;;;4975321;28;20190;-78
2022/01/24 06:41:50;;;;;;;16.83;10.05;;;0.90;99.90;;;;;;4974792;28;20197;-78
2022/01/24 06:44:16;;;;;;;15.63;11.23;;;0.80;99.90;;;;;;4976478;28;20186;-79
2022/01/24 06:46:42;;;;;;;12.23;9.57;;;0.70;99.90;;;;;;4976161;28;20197;-79
2022/01/24 06:49:09;;;;;;;14.93;9.60;;;0.70;99.90;;;;;;4976386;28;20201;-79
2022/01/24 06:51:35;;;;;;;19.15;11.23;;;0.70;99.90;;;;;;4975742;28;20573;-79
2022/01/24 06:54:00;;;;;;;13.20;9.67;;;0.60;99.90;;;;;;4976058;28;20189;-78
2022/01/24 06:56:26;;;;;;;12.13;10.13;;;0.60;99.90;;;;;;4976133;28;20417;-77
2022/01/24 06:58:51;;;;;;;13.70;9.03;;;0.50;99.90;;;;;;4976047;28;20212;-79
2022/01/24 07:01:17;;;;;;;13.73;10.80;;;0.40;99.90;;;;;;4975584;28;20552;-79
2022/01/24 07:03:42;;;;;;;12.33;9.37;;;0.40;99.90;;;;;;4975950;28;20259;-78
2022/01/24 07:06:08;;;;;;;14.50;9.90;;;0.40;99.90;;;;;;4974435;28;20181;-79
2022/01/24 07:08:34;;;;;;;18.00;10.60;;;0.30;99.90;;;;;;4975937;28;20339;-79
2022/01/24 07:10:59;;;;;;;14.57;9.43;;;0.30;99.90;;;;;;4974250;28;20212;-79
2022/01/24 07:13:25;;;;;;;10.90;9.33;;;0.20;99.90;;;;;;4975685;28;20207;-79
2022/01/24 07:16:00;;;;;;;16.20;9.80;;;0.20;99.90;;;;;;4974586;28;20713;-78
2022/01/24 07:20:55;;;;;;;12.00;9.48;;;0.10;99.90;;;;;;4975486;28;20182;-79
2022/01/24 07:23:21;;;;;;;11.07;8.50;;;0.10;99.90;;;;;;4975226;28;20216;-79
2022/01/24 07:25:46;;;;;;;12.23;9.50;;;0.10;99.90;;;;;;4975490;28;20269;-79
2022/01/24 07:28:13;;;;;;;14.40;10.03;;;0.00;99.90;;;;;;4975536;28;20534;-79
2022/01/24 07:30:39;;;;;;;15.45;11.50;;;0.00;99.90;;;;;;4975402;28;20196;-79
2022/01/24 07:33:05;;;;;;;13.30;10.03;;;-0.10;99.90;;;;;;4974963;28;20570;-78
2022/01/24 07:35:30;;;;;;;12.77;9.97;;;-0.10;99.90;;;;;;4975312;28;20588;-78
2022/01/24 07:37:56;;;;;;;16.63;11.67;;;-0.10;99.90;;;;;;4975329;28;20247;-78
2022/01/24 07:40:22;;;;;;;12.83;9.57;;;0.00;99.90;;;;;;4975231;28;20188;-78
2022/01/24 07:43:09;;;;;;;11.38;8.77;;;-0.10;99.90;;;;;;4974779;28;20246;-78
2022/01/24 07:45:36;;;;;;;16.23;9.68;;;-0.10;99.90;;;;;;4975007;28;20590;-78
2022/01/24 07:48:02;;;;;;;13.18;10.00;;;-0.10;99.90;;;;;;4973913;28;20181;-79
2022/01/24 07:50:28;;;;;;;14.45;11.05;;;-0.10;99.90;;;;;;4974854;28;20244;-80
2022/01/24 07:52:55;;;;;;;14.03;10.87;;;0.00;99.90;;;;;;4974652;28;20236;-78
2022/01/24 07:55:22;;;;;;;17.90;12.35;;;0.00;99.90;;;;;;4975243;28;20524;-78
2022/01/24 07:57:48;;;;;;;14.27;10.77;;;0.00;99.90;;;;;;4974962;28;20177;-78
2022/01/24 08:00:14;;;;;;;17.20;11.10;;;0.00;99.90;;;;;;4975019;28;20236;-79
2022/01/24 08:02:41;;;;;;;13.35;9.48;;;0.00;99.90;;;;;;4974379;28;20547;-78
2022/01/24 08:05:09;;;;;;;13.65;9.95;;;0.00;99.90;;;;;;4974631;28;20184;-79
2022/01/24 08:07:36;;;;;;;14.90;10.57;;;0.10;99.90;;;;;;4974773;28;20661;-78
2022/01/24 08:10:02;;;;;;;13.07;9.77;;;0.10;99.90;;;;;;4973310;28;20212;-79
2022/01/24 08:12:27;;;;;;;14.52;10.20;;;0.10;99.90;;;;;;4974258;28;20198;-80
2022/01/24 08:14:53;;;;;;;13.53;10.13;;;0.10;99.90;;;;;;4974229;28;20200;-78
2022/01/24 08:17:19;;;;;;;13.97;11.30;;;0.20;99.90;;;;;;4973595;28;20208;-78
2022/01/24 08:19:45;;;;;;;16.73;10.50;;;0.30;99.90;;;;;;4974806;28;20507;-79
2022/01/24 08:22:12;;;;;;;15.02;11.63;;;0.40;99.90;;;;;;4974145;28;20613;-78
2022/01/24 08:24:39;;;;;;;14.00;10.93;;;0.50;99.90;;;;;;4974156;28;20224;-80
2022/01/24 08:27:05;;;;;;;17.88;11.90;;;0.50;99.90;;;;;;4974436;28;20236;-80
2022/01/24 08:29:30;;;;;;;16.50;11.00;;;0.60;99.90;;;;;;4973957;28;20910;-78
2022/01/24 08:31:56;;;;;;;20.60;11.80;;;0.70;99.90;;;;;;4955078;28;20461;-79
2022/01/24 08:34:21;;;;;;;16.57;12.50;;;0.70;99.90;;;;;;4954925;29;20608;-77
2022/01/24 08:36:47;;;;;;;15.23;11.73;;;0.70;99.90;;;;;;4953966;29;20551;-78
2022/01/24 08:39:13;;;;;;;16.90;12.07;;;0.90;99.90;;;;;;4955039;29;20181;-78
2022/01/24 08:42:02;;;;;;;18.73;13.87;;;0.90;99.90;;;;;;4955146;28;20191;-80
2022/01/24 08:47:12;;;;;;;18.90;13.73;;;1.10;99.90;;;;;;4955335;29;20241;-80
2022/01/24 08:49:37;;;;;;;17.93;13.93;;;1.20;99.90;;;;;;4955069;29;20566;-79
2022/01/24 08:52:03;;;;;;;23.63;14.07;;;1.30;99.90;;;;;;4953627;29;20203;-80
2022/01/24 08:54:30;;;;;;;18.83;12.30;;;1.30;99.90;;;;;;4954980;28;20648;-79
2022/01/24 08:56:55;;;;;;;17.85;12.75;;;1.40;99.90;;;;;;4953670;29;20977;-79
2022/01/24 08:59:24;;;;;;;17.30;12.87;;;1.50;99.90;;;;;;4954812;29;20191;-79
2022/01/24 09:01:50;;;;;;;19.58;14.43;;;1.50;99.90;;;;;;4954584;28;20263;-78
2022/01/24 09:04:16;;;;;;;18.93;14.37;;;1.60;99.90;;;;;;4954879;29;20707;-80
2022/01/24 09:06:41;;;;;;;20.40;13.50;;;1.70;99.90;;;;;;4953751;29;20196;-80
2022/01/24 09:09:07;;;;;;;17.00;13.33;;;1.80;99.90;;;;;;4954810;28;20247;-78
2022/01/24 09:11:35;;;;;;;18.20;13.33;;;1.90;99.90;;;;;;4954561;29;20334;-78
2022/01/24 09:14:03;;;;;;;20.27;14.90;;;1.90;99.90;;;;;;4954968;28;20193;-80
2022/01/24 09:16:28;;;;;;;19.73;15.80;;;2.00;99.90;;;;;;4956135;28;20178;-79
2022/01/24 09:18:54;;;;;;;17.67;14.00;;;2.10;99.90;;;;;;4958987;29;20186;-78
2022/01/24 09:21:22;;;;;;;21.63;15.32;;;2.30;99.90;;;;;;4958155;28;20282;-79
2022/01/24 09:23:48;;;;;;;18.77;14.40;;;2.40;99.90;;;;;;4958356;28;20203;-80
2022/01/24 09:26:14;;;;;;;17.47;14.53;;;2.40;99.90;;;;;;4958646;29;20698;-80
2022/01/24 09:28:40;;;;;;;17.45;13.48;;;2.50;99.90;;;;;;4958418;29;20237;-78
2022/01/24 09:31:06;;;;;;;21.25;14.63;;;2.50;99.90;;;;;;4958180;28;20188;-80
2022/01/24 09:33:31;;;;;;;14.63;13.03;;;2.60;99.90;;;;;;4961917;28;20238;-79
2022/01/24 09:36:00;;;;;;;17.80;13.30;;;2.70;99.90;;;;;;4965890;28;20518;-78
2022/01/24 09:38:29;;;;;;;17.88;12.18;;;2.90;99.90;;;;;;4975347;28;20239;-78
2022/01/24 09:40:56;;;;;;;18.10;12.68;;;3.00;99.90;;;;;;4972604;28;20189;-79
2022/01/24 09:43:21;;;;;;;14.52;12.15;;;3.20;99.90;;;;;;4965457;28;20212;-80
2022/01/24 09:45:47;;;;;;;14.37;11.50;;;3.30;99.90;;;;;;4960520;28;20185;-79
2022/01/24 09:48:14;;;;;;;13.83;10.57;;;3.50;99.90;;;;;;4975436;28;20202;-78
2022/01/24 09:50:39;;;;;;;12.52;10.38;;;3.70;99.90;;;;;;4962691;28;20225;-80
2022/01/24 09:53:05;;;;;;;11.73;9.13;;;3.80;99.90;;;;;;4960465;28;20204;-80
2022/01/24 09:55:31;;;;;;;11.77;10.20;;;4.00;99.90;;;;;;4960260;28;20685;-80
2022/01/24 09:57:57;;;;;;;9.67;8.53;;;4.10;99.90;;;;;;4958003;28;20188;-79
2022/01/24 10:00:26;;;;;;;7.77;6.97;;;4.30;99.90;;;;;;4960445;28;20512;-80
2022/01/24 10:02:53;;;;;;;11.90;7.13;;;4.40;99.90;;;;;;4959943;28;20568;-80
2022/01/24 10:05:21;;;;;;;7.15;6.35;;;4.50;99.90;;;;;;4961446;28;20181;-80
2022/01/24 10:07:57;;;;;;;7.00;6.30;;;4.60;99.90;;;;;;4957385;29;20216;-79
2022/01/24 10:10:41;;;;;;;7.32;6.63;;;4.60;99.90;;;;;;4957565;28;20205;-79
2022/01/24 10:19:21;;;;;;;4.32;3.78;;;4.90;99.90;;;;;;4973713;28;20198;-80
2022/01/24 10:21:51;;;;;;;4.45;3.42;;;5.40;99.90;;;;;;4956516;28;20240;-80
2022/01/24 10:24:26;;;;;;;5.30;3.40;;;5.70;99.90;;;;;;4975590;28;20614;-79
2022/01/24 10:27:28;;;;;;;3.50;2.83;;;5.80;99.90;;;;;;4972953;28;20182;-79
2022/01/24 10:29:59;;;;;;;3.70;3.40;;;5.70;99.90;;;;;;4973320;28;20231;-79
2022/01/24 10:32:30;;;;;;;3.85;3.15;;;5.70;99.90;;;;;;4975027;28;20667;-79
2022/01/24 10:35:16;;;;;;;5.25;3.50;;;5.70;99.90;;;;;;4975539;28;20271;-80
2022/01/24 10:37:42;;;;;;;4.43;3.30;;;5.80;99.90;;;;;;4975564;28;20264;-80
2022/01/24 10:40:19;;;;;;;4.27;3.83;;;6.10;99.90;;;;;;4974414;28;20689;-78
2022/01/24 10:42:55;;;;;;;4.82;3.67;;;6.00;99.90;;;;;;4975220;28;20577;-78
2022/01/24 10:45:23;;;;;;;3.65;3.35;;;6.00;99.90;;;;;;4975659;28;20188;-78
2022/01/24 10:47:52;;;;;;;6.10;3.78;;;6.10;99.90;;;;;;4975709;28;20199;-80
2022/01/24 10:50:24;;;;;;;3.40;3.10;;;6.20;99.90;;;;;;4975715;28;20209;-79
2022/01/24 10:52:52;;;;;;;6.88;4.03;;;6.70;99.90;;;;;;4973043;28;20196;-80
2022/01/24 10:55:26;;;;;;;4.05;3.75;;;6.60;99.90;;;;;;4964679;28;20226;-78
2022/01/24 10:58:13;;;;;;;3.70;3.40;;;6.60;99.90;;;;;;4957162;28;20177;-78
2022/01/24 11:00:41;;;;;;;6.93;3.95;;;6.70;99.90;;;;;;4956715;28;20177;-79
2022/01/24 11:03:14;;;;;;;4.57;3.35;;;6.80;99.90;;;;;;4956415;28;20189;-79
2022/01/24 11:05:41;;;;;;;4.53;3.97;;;6.60;99.90;;;;;;4956589;28;20272;-80
2022/01/24 11:08:15;;;;;;;4.55;3.85;;;6.60;99.90;;;;;;4955288;29;20268;-79
2022/01/24 11:10:46;;;;;;;5.03;4.53;;;7.00;99.90;;;;;;4956211;28;20221;-81
2022/01/24 11:13:14;;;;;;;4.90;4.18;;;7.10;99.90;;;;;;4956400;28;20252;-77
2022/01/24 11:15:44;;;;;;;4.05;3.67;;;7.10;99.90;;;;;;4956398;28;20264;-77
2022/01/24 11:18:14;;;;;;;7.93;5.50;;;7.00;99.90;;;;;;4956359;28;20181;-79
2022/01/24 11:20:45;;;;;;;6.45;5.80;;;7.00;99.90;;;;;;4956289;28;20177;-78
2022/01/24 11:23:11;;;;;;;6.43;4.70;;;7.40;99.90;;;;;;4956134;28;20217;-80
2022/01/24 11:25:43;;;;;;;4.78;4.07;;;7.40;99.90;;;;;;4956535;28;20574;-77
2022/01/24 11:28:09;;;;;;;4.50;3.58;;;7.40;99.90;;;;;;4956118;28;20178;-79
2022/01/24 11:30:38;;;;;;;5.35;4.85;;;7.50;99.90;;;;;;4956027;28;20209;-78
2022/01/24 11:33:19;;;;;;;5.30;4.80;;;7.30;99.90;;;;;;4955902;29;20634;-79
2022/01/24 11:35:54;;;;;;;4.70;4.30;;;7.40;99.90;;;;;;4956255;28;20208;-79
2022/01/24 11:38:36;;;;;;;11.43;4.68;;;7.40;99.90;;;;;;4955712;28;20177;-79
2022/01/24 11:41:06;;;;;;;8.90;5.15;;;7.40;99.90;;;;;;4954631;29;20220;-79
2022/01/24 11:43:38;;;;;;;4.78;4.38;;;7.10;99.90;;;;;;4956690;28;20624;-80
2022/01/24 11:46:24;;;;;;;7.43;5.15;;;7.10;99.90;;;;;;4956580;28;20173;-79
2022/01/24 11:49:06;;;;;;;5.53;4.50;;;7.00;99.90;;;;;;4957308;29;20625;-78
2022/01/24 11:51:33;;;;;;;5.55;4.28;;;7.60;99.90;;;;;;4955854;28;20213;-79
2022/01/24 11:53:59;;;;;;;7.35;4.28;;;7.70;99.90;;;;;;4955717;28;20193;-79
2022/01/24 11:56:31;;;;;;;5.40;4.90;;;8.20;99.90;;;;;;4955700;29;20182;-80
2022/01/24 11:59:22;;;;;;;4.55;4.15;;;8.10;99.90;;;;;;4955647;28;20777;-79
2022/01/24 12:02:09;;;;;;;5.70;4.97;;;8.00;99.90;;;;;;4955299;28;20255;-78
2022/01/24 12:04:58;;;;;;;4.82;4.43;;;8.10;99.90;;;;;;4955187;29;20190;-80
2022/01/24 12:07:39;;;;;;;5.35;4.85;;;8.10;99.90;;;;;;4955716;28;20227;-79
2022/01/24 12:10:37;;;;;;;6.18;5.22;;;7.60;99.90;;;;;;4955335;28;20197;-80
2022/01/24 12:13:35;;;;;;;9.30;7.32;;;7.70;99.90;;;;;;4947620;28;20201;-80
2022/01/24 12:16:07;;;;;;;5.95;5.40;;;7.70;99.90;;;;;;4955447;28;20184;-80
2022/01/24 12:18:33;;;;;;;6.05;5.55;;;7.60;99.90;;;;;;4955271;28;20235;-78
2022/01/24 12:21:05;;;;;;;6.18;5.68;;;7.60;99.90;;;;;;4955067;28;20233;-80
2022/01/24 12:23:35;;;;;;;6.20;5.70;;;7.30;99.90;;;;;;4955176;28;20207;-79
2022/01/24 12:26:07;;;;;;;8.05;6.13;;;7.50;99.90;;;;;;4955407;28;20176;-80
2022/01/24 12:28:46;;;;;;;7.57;6.90;;;7.20;99.90;;;;;;4955162;28;20538;-80
2022/01/24 12:31:33;;;;;;;6.85;6.15;;;7.30;99.90;;;;;;4954969;28;20173;-79
2022/01/24 12:34:09;;;;;;;6.20;5.57;;;7.40;99.90;;;;;;4955446;29;20548;-80
2022/01/24 12:36:47;;;;;;;7.05;6.40;;;7.50;99.90;;;;;;4956584;28;20210;-80
2022/01/24 12:39:34;;;;;;;8.85;7.65;;;7.20;99.90;;;;;;4967807;28;20208;-79
2022/01/24 12:42:17;;;;;;;7.18;6.03;;;7.40;99.90;;;;;;4974236;28;20246;-80
2022/01/24 12:47:26;;;;;;;7.25;6.65;;;7.30;99.90;;;;;;4974639;28;20212;-79
2022/01/24 12:49:52;;;;;;;9.18;7.22;;;7.20;99.90;;;;;;4974776;28;20216;-80
2022/01/24 12:52:22;;;;;;;7.25;6.65;;;7.00;99.90;;;;;;4978030;28;20560;-79
2022/01/24 12:54:55;;;;;;;7.40;6.70;;;7.30;99.90;;;;;;4975170;28;20175;-80
2022/01/24 12:57:29;;;;;;;9.27;6.80;;;7.40;99.90;;;;;;4978459;28;20196;-80
2022/01/24 13:00:03;;;;;;;7.50;6.80;;;7.30;99.90;;;;;;4960628;28;20207;-78
2022/01/24 13:02:31;;;;;;;5.78;5.28;;;7.40;99.90;;;;;;4958385;28;20224;-82
2022/01/24 13:05:05;;;;;;;7.35;5.80;;;7.20;99.90;;;;;;4958900;28;20194;-79
2022/01/24 13:07:31;;;;;;;6.97;6.15;;;7.40;99.90;;;;;;4958763;29;20184;-79
2022/01/24 13:10:09;;;;;;;7.05;6.35;;;7.70;99.90;;;;;;4958608;28;20212;-79
2022/01/24 13:12:36;;;;;;;9.05;6.43;;;7.70;99.90;;;;;;4958273;28;20195;-81
2022/01/24 13:15:06;;;;;;;7.72;6.25;;;7.90;99.90;;;;;;4957288;29;20194;-81
2022/01/24 13:20:58;;;;;;;7.90;6.50;;;7.70;99.90;;;;;;4958845;29;20705;-79
2022/01/24 13:23:23;;;;;;;8.18;6.95;;;7.80;99.90;;;;;;4958046;29;20221;-79
2022/01/24 13:25:49;;;;;;;7.43;6.53;;;8.10;99.90;;;;;;4957236;29;20183;-80
2022/01/24 13:28:19;;;;;;;6.60;5.93;;;8.30;99.90;;;;;;4958366;29;20275;-81
2022/01/24 13:30:48;;;;;;;8.45;6.90;;;7.80;99.90;;;;;;4958014;28;20571;-80
2022/01/24 13:33:19;;;;;;;6.22;5.72;;;7.50;99.90;;;;;;4958218;28;20225;-81
2022/01/24 13:35:50;;;;;;;6.15;5.65;;;7.40;99.90;;;;;;4958171;28;20650;-79
2022/01/24 13:38:25;;;;;;;7.13;6.40;;;7.80;99.90;;;;;;4958339;28;20184;-81
2022/01/24 13:41:11;;;;;;;7.05;6.18;;;8.10;99.90;;;;;;4957934;28;20180;-80
2022/01/24 13:43:45;;;;;;;5.95;5.45;;;8.20;99.90;;;;;;4957993;28;20260;-81
2022/01/24 13:46:17;;;;;;;5.65;5.15;;;8.80;99.90;;;;;;4958186;29;20205;-79
2022/01/24 13:49:15;;;;;;;6.82;6.18;;;8.90;99.90;;;;;;4958136;28;20225;-81
2022/01/24 13:51:46;;;;;;;7.88;7.10;;;9.00;99.90;;;;;;4956459;29;20226;-81
2022/01/24 13:54:24;;;;;;;7.90;7.25;;;9.00;99.90;;;;;;4958043;28;20255;-79
2022/01/24 13:56:55;;;;;;;7.45;6.75;;;9.40;99.90;;;;;;4957918;28;20195;-79
2022/01/24 13:59:27;;;;;;;11.90;7.15;;;9.60;99.90;;;;;;4956707;29;20189;-78
2022/01/24 14:02:00;;;;;;;9.27;6.57;;;9.80;99.90;;;;;;4955400;28;20276;-80
2022/01/24 14:04:39;;;;;;;7.85;7.10;;;10.30;99.90;;;;;;4956537;29;20548;-81
2022/01/24 14:07:13;;;;;;;7.07;6.20;;;10.50;99.90;;;;;;4957725;28;20651;-80
2022/01/24 14:09:41;;;;;;;7.53;6.65;;;10.70;99.90;;;;;;4956295;29;20213;-80
2022/01/24 14:12:36;;;;;;;8.18;7.47;;;10.80;99.90;;;;;;4957059;29;20276;-79
2022/01/24 14:16:21;;;;;;;7.43;6.55;;;10.90;99.90;;;;;;4957554;28;20547;-80
2022/01/24 14:20:44;;;;;;;7.78;6.85;;;11.00;99.90;;;;;;4957208;28;20195;-81
2022/01/24 14:23:35;;;;;;;8.35;6.63;;;11.10;99.90;;;;;;4955845;29;20326;-81
2022/01/24 14:26:45;;;;;;;6.47;5.88;;;11.10;99.90;;;;;;4956294;29;20180;-80
2022/01/24 14:29:14;;;;;;;7.53;5.78;;;11.10;99.90;;;;;;4917049;29;20621;-79
2022/01/24 14:31:44;;;;;;;11.43;7.93;;;10.70;99.90;;;;;;4916928;29;20212;-80
2022/01/24 14:34:13;;;;;;;8.05;6.93;;;10.80;99.90;;;;;;4939351;28;20673;-79
2022/01/24 14:36:40;;;;;;;8.10;6.88;;;10.60;99.90;;;;;;4957398;28;20190;-78
2022/01/24 14:39:08;;;;;;;12.60;8.30;;;10.60;99.90;;;;;;4957132;28;20188;-78
2022/01/24 14:41:45;;;;;;;7.20;6.30;;;10.80;99.90;;;;;;4956563;28;20194;-81
2022/01/24 14:46:58;;;;;;;7.22;6.63;;;10.80;99.90;;;;;;4957192;29;20193;-79
2022/01/24 14:49:29;;;;;;;11.88;7.60;;;11.10;99.90;;;;;;4956791;28;20201;-80